M I D A S
Marine Information and Data Acquisition System
Tripno 1083 of the Zeeleeuw from 2006-05-15 11:44:25 to 2006-05-15 13:55:33
Back to CruiseResearch ActivitiesStationsMapUnderway DataData graphs

EquipmentUnitsComments
TimeDGPSUTC
LatitudeDGPSDM.mWGS84
LongitudeDGPSDM.mWGS84
SpeedMeteo Stationm/sRelative wind speed
DirectionMeteo StationdegRelative wind direction
TemperatureMeteo Stationdeg CelciusAir temperature
PressureMeteo StationPaAtmospheric pressure
HumidityMeteo Station%Relative humidity
Missing or incorrect values are displayed as -999
Metereological data collected by the RV Zeeleeuw from 2006-05-15 07:32:01 to 2006-05-15 14:08:45
                                                                                    Next 1000 lines
Time Latitude Longitude Speed Direction Temperature Pressure Humidity
2006-05-15 07:32:11 51°13.598 2°56.098 -999 35 14.3 101620 76
2006-05-15 07:32:15 51°13.599 2°56.099 -999 13 14.4 101620 76
2006-05-15 07:32:21 51°13.599 2°56.099 -999 29 14.4 101620 76
2006-05-15 07:32:25 51°13.599 2°56.099 -999 10 14.3 101620 77
2006-05-15 07:32:31 51°13.6 2°56.099 -999 13 14.3 101620 77
2006-05-15 07:32:36 51°13.6 2°56.099 -999 38 14.4 101620 77
2006-05-15 07:32:41 51°13.6 2°56.099 -999 22 14.4 101620 77
2006-05-15 07:32:45 51°13.6 2°56.099 -999 21 14.4 101620 77
2006-05-15 07:32:51 51°13.599 2°56.098 -999 20 14.4 101620 77
2006-05-15 07:32:56 51°13.599 2°56.098 -999 24 14.4 101620 77
2006-05-15 07:33:01 51°13.599 2°56.098 -999 19 14.4 101620 77
2006-05-15 07:33:05 51°13.6 2°56.099 -999 37 14.4 101620 77
2006-05-15 07:33:11 51°13.6 2°56.099 -999 43 14.4 101620 77
2006-05-15 07:33:15 51°13.6 2°56.099 -999 54 14.4 101620 77
2006-05-15 07:33:21 51°13.6 2°56.099 -999 46 14.4 101620 77
2006-05-15 07:33:25 51°13.6 2°56.099 -999 24 14.4 101620 77
2006-05-15 07:33:31 51°13.6 2°56.099 -999 12 14.4 101620 77
2006-05-15 07:33:35 51°13.6 2°56.099 -999 29 14.4 101620 77
2006-05-15 07:33:41 51°13.6 2°56.099 -999 31 14.4 101620 77
2006-05-15 07:33:45 51°13.599 2°56.099 -999 28 14.4 101620 77
2006-05-15 07:33:51 51°13.599 2°56.099 -999 34 14.4 101620 77
2006-05-15 07:33:55 51°13.599 2°56.099 -999 45 14.5 101620 77
2006-05-15 07:34:01 51°13.6 2°56.099 -999 53 14.5 101620 77
2006-05-15 07:34:05 51°13.6 2°56.099 -999 59 14.5 101620 77
2006-05-15 07:34:11 51°13.6 2°56.099 -999 49 14.5 101620 77
2006-05-15 07:34:15 51°13.6 2°56.099 -999 31 14.5 101620 77
2006-05-15 07:34:20 51°13.6 2°56.098 -999 23 14.5 101620 77
2006-05-15 07:34:25 51°13.6 2°56.098 -999 22 14.5 101620 77
2006-05-15 07:34:31 51°13.6 2°56.098 -999 24 14.5 101620 77
2006-05-15 07:34:35 51°13.6 2°56.099 -999 18 14.5 101620 76
2006-05-15 07:34:41 51°13.6 2°56.099 -999 30 14.5 101620 76
2006-05-15 07:34:45 51°13.6 2°56.099 -999 33 14.5 101620 76
2006-05-15 07:34:51 51°13.6 2°56.099 -999 38 14.5 101620 76
2006-05-15 07:34:55 51°13.599 2°56.098 -999 31 14.5 101620 76
2006-05-15 07:35:01 51°13.599 2°56.098 -999 41 14.5 101620 76
2006-05-15 07:35:05 51°13.599 2°56.098 -999 37 14.5 101620 76
2006-05-15 07:35:11 51°13.599 2°56.098 -999 37 14.5 101620 76
2006-05-15 07:35:16 51°13.599 2°56.098 -999 37 14.5 101620 76
2006-05-15 07:35:21 51°13.599 2°56.098 -999 39 14.5 101620 76
2006-05-15 07:35:25 51°13.599 2°56.098 -999 34 14.5 101620 76
2006-05-15 07:35:31 51°13.598 2°56.098 -999 36 14.5 101620 76
2006-05-15 07:35:35 51°13.598 2°56.098 -999 35 14.5 101620 76
2006-05-15 07:35:41 51°13.598 2°56.098 -999 56 14.5 101620 76
2006-05-15 07:35:45 51°13.599 2°56.098 -999 43 14.5 101620 77
2006-05-15 07:35:51 51°13.599 2°56.098 -999 49 14.5 101620 77
2006-05-15 07:35:55 51°13.599 2°56.097 -999 63 14.5 101610 77
2006-05-15 07:36:01 51°13.599 2°56.096 -999 100 14.5 101610 77
2006-05-15 07:36:05 51°13.599 2°56.095 -999 114 14.5 101620 76
2006-05-15 07:36:11 51°13.6 2°56.091 -999 90 14.5 101620 76
2006-05-15 07:36:15 51°13.6 2°56.088 -999 72 14.5 101620 76
2006-05-15 07:36:20 51°13.601 2°56.083 -999 89 14.5 101620 76
2006-05-15 07:36:26 51°13.602 2°56.075 -999 106 14.5 101620 77
2006-05-15 07:36:31 51°13.603 2°56.068 -999 113 14.5 101620 77
2006-05-15 07:36:35 51°13.604 2°56.062 -999 114 14.5 101620 76
2006-05-15 07:36:41 51°13.606 2°56.051 -999 114 14.5 101620 76
2006-05-15 07:36:45 51°13.607 2°56.044 -999 125 14.5 101620 76
2006-05-15 07:36:51 51°13.609 2°56.032 -999 127 14.5 101620 76
2006-05-15 07:36:55 51°13.61 2°56.024 -999 128 14.5 101620 76
2006-05-15 07:37:01 51°13.611 2°56.013 -999 127 14.5 101620 76
2006-05-15 07:37:05 51°13.613 2°56.005 -999 124 14.5 101620 76
2006-05-15 07:37:11 51°13.614 2°55.994 -999 113 14.5 101620 76
2006-05-15 07:37:15 51°13.615 2°55.986 -999 107 14.5 101620 76
2006-05-15 07:37:21 51°13.617 2°55.975 -999 134 14.5 101620 76
2006-05-15 07:37:25 51°13.619 2°55.968 -999 136 14.5 101610 76
2006-05-15 07:37:31 51°13.62 2°55.957 -999 84 14.5 101610 76
2006-05-15 07:37:35 51°13.622 2°55.95 -999 111 14.5 101620 76
2006-05-15 07:37:41 51°13.624 2°55.941 -999 113 14.5 101620 76
2006-05-15 07:37:45 51°13.626 2°55.934 -999 103 14.6 101620 76
2006-05-15 07:37:51 51°13.628 2°55.925 -999 89 14.6 101620 76
2006-05-15 07:37:55 51°13.63 2°55.919 -999 89 14.5 101620 76
2006-05-15 07:38:01 51°13.633 2°55.91 -999 86 14.5 101620 76
2006-05-15 07:38:05 51°13.635 2°55.905 -999 93 14.5 101620 76
2006-05-15 07:38:11 51°13.638 2°55.896 -999 109 14.5 101620 76
2006-05-15 07:38:15 51°13.64 2°55.89 -999 109 14.5 101620 76
2006-05-15 07:38:20 51°13.643 2°55.883 -999 107 14.5 101620 76
2006-05-15 07:38:25 51°13.646 2°55.876 -999 100 14.5 101620 76
2006-05-15 07:38:31 51°13.65 2°55.869 -999 105 14.5 101620 76
2006-05-15 07:38:35 51°13.653 2°55.863 -999 117 14.5 101620 76
2006-05-15 07:38:41 51°13.657 2°55.856 -999 129 14.5 101620 76
2006-05-15 07:38:45 51°13.66 2°55.85 -999 93 14.5 101610 76
2006-05-15 07:38:51 51°13.664 2°55.843 -999 65 14.5 101610 76
2006-05-15 07:38:55 51°13.667 2°55.837 -999 36 14.5 101610 76
2006-05-15 07:39:01 51°13.672 2°55.829 -999 36 14.5 101610 76
2006-05-15 07:39:05 51°13.676 2°55.824 -999 37 14.6 101620 76
2006-05-15 07:39:11 51°13.681 2°55.816 -999 37 14.6 101620 76
2006-05-15 07:39:15 51°13.685 2°55.811 -999 69 14.6 101620 76
2006-05-15 07:39:21 51°13.691 2°55.803 -999 72 14.6 101620 76
2006-05-15 07:39:25 51°13.695 2°55.798 -999 72 14.6 101620 76
2006-05-15 07:39:31 51°13.701 2°55.791 -999 111 14.6 101620 76
2006-05-15 07:39:35 51°13.705 2°55.786 -999 154 14.6 101610 76
2006-05-15 07:39:40 51°13.71 2°55.78 -999 157 14.6 101610 76
2006-05-15 07:39:45 51°13.715 2°55.773 -999 156 14.6 101620 76
2006-05-15 07:39:50 51°13.719 2°55.767 -999 161 14.6 101620 76
2006-05-15 07:39:55 51°13.724 2°55.76 -999 134 14.6 101610 76
2006-05-15 07:40:01 51°13.729 2°55.753 -999 95 14.6 101610 76
2006-05-15 07:40:05 51°13.732 2°55.748 -999 85 14.6 101610 76
2006-05-15 07:40:11 51°13.737 2°55.74 -999 88 14.6 101610 76
2006-05-15 07:40:15 51°13.74 2°55.736 -999 58 14.7 101610 76
2006-05-15 07:40:19 51°13.742 2°55.731 -999 76 14.7 101610 76
2006-05-15 07:40:25 51°13.745 2°55.726 -999 43 14.7 101610 76
2006-05-15 07:40:31 51°13.747 2°55.721 -999 56 14.7 101610 76
2006-05-15 07:40:34 51°13.748 2°55.719 -999 42 14.7 101610 76
2006-05-15 07:40:40 51°13.749 2°55.716 -999 37 14.7 101610 76
2006-05-15 07:40:45 51°13.75 2°55.716 -999 48 14.7 101610 76
2006-05-15 07:40:50 51°13.751 2°55.716 -999 44 14.7 101610 76
2006-05-15 07:40:54 51°13.751 2°55.717 -999 57 14.7 101610 76
2006-05-15 07:40:59 51°13.751 2°55.719 -999 58 14.7 101610 76
2006-05-15 07:41:05 51°13.751 2°55.723 -999 92 14.7 101610 76
2006-05-15 07:41:09 51°13.752 2°55.725 -999 71 14.7 101610 76
2006-05-15 07:41:15 51°13.752 2°55.727 -999 87 14.7 101610 76
2006-05-15 07:41:20 51°13.752 2°55.727 -999 109 14.7 101610 76
2006-05-15 07:41:24 51°13.753 2°55.726 -999 114 14.7 101600 76
2006-05-15 07:41:30 51°13.752 2°55.724 -999 125 14.7 101600 76
2006-05-15 07:41:35 51°13.752 2°55.72 -999 134 14.7 101610 76
2006-05-15 07:41:40 51°13.75 2°55.715 -999 152 14.7 101610 76
2006-05-15 07:41:45 51°13.749 2°55.71 -999 142 14.7 101610 76
2006-05-15 07:41:51 51°13.747 2°55.704 -999 127 14.7 101610 76
2006-05-15 07:41:55 51°13.746 2°55.7 -999 110 14.7 101610 76
2006-05-15 07:42:01 51°13.745 2°55.695 -999 129 14.7 101610 76
2006-05-15 07:42:05 51°13.744 2°55.692 -999 136 14.6 101610 76
2006-05-15 07:42:11 51°13.742 2°55.688 -999 120 14.6 101610 76
2006-05-15 07:42:15 51°13.741 2°55.685 -999 113 14.6 101610 76
2006-05-15 07:42:21 51°13.74 2°55.681 -999 121 14.6 101610 76
2006-05-15 07:42:25 51°13.74 2°55.678 -999 135 14.6 101610 76
2006-05-15 07:42:31 51°13.74 2°55.676 -999 112 14.6 101610 76
2006-05-15 07:42:35 51°13.74 2°55.676 -999 111 14.6 101610 76
2006-05-15 07:42:41 51°13.741 2°55.677 -999 128 14.6 101610 76
2006-05-15 07:42:45 51°13.743 2°55.678 -999 138 14.6 101610 76
2006-05-15 07:42:50 51°13.746 2°55.68 -999 141 14.6 101610 76
2006-05-15 07:42:55 51°13.749 2°55.682 -999 134 14.6 101610 76
2006-05-15 07:43:00 51°13.752 2°55.683 -999 135 14.6 101610 76
2006-05-15 07:43:05 51°13.755 2°55.684 -999 131 14.6 101610 76
2006-05-15 07:43:10 51°13.758 2°55.684 -999 141 14.6 101610 76
2006-05-15 07:43:15 51°13.761 2°55.684 -999 157 14.6 101610 76
2006-05-15 07:43:20 51°13.764 2°55.684 -999 160 14.6 101610 76
2006-05-15 07:43:25 51°13.768 2°55.683 -999 161 14.6 101610 76
2006-05-15 07:43:30 51°13.771 2°55.682 -999 165 14.6 101610 76
2006-05-15 07:43:34 51°13.774 2°55.681 -999 166 14.6 101610 76
2006-05-15 07:43:39 51°13.777 2°55.68 -999 172 14.6 101610 76
2006-05-15 07:43:45 51°13.782 2°55.677 -999 183 14.6 101610 76
2006-05-15 07:43:50 51°13.786 2°55.675 -999 186 14.6 101610 76
2006-05-15 07:43:55 51°13.789 2°55.672 -999 213 14.7 101610 76
2006-05-15 07:44:01 51°13.795 2°55.668 -999 230 14.7 101610 76
2006-05-15 07:44:05 51°13.799 2°55.665 -999 209 14.6 101610 76
2006-05-15 07:44:11 51°13.805 2°55.66 -999 208 14.6 101610 76
2006-05-15 07:44:16 51°13.81 2°55.656 -999 204 14.7 101610 76
2006-05-15 07:44:21 51°13.816 2°55.651 -999 202 14.7 101610 76
2006-05-15 07:44:25 51°13.821 2°55.647 -999 175 14.7 101610 76
2006-05-15 07:44:31 51°13.828 2°55.641 -999 173 14.7 101610 76
2006-05-15 07:44:35 51°13.834 2°55.637 -999 147 14.7 101610 76
2006-05-15 07:44:41 51°13.842 2°55.631 -999 148 14.7 101610 76
2006-05-15 07:44:45 51°13.848 2°55.627 -999 151 14.7 101610 76
2006-05-15 07:44:51 51°13.856 2°55.62 -999 190 14.7 101610 76
2006-05-15 07:44:55 51°13.862 2°55.616 -999 165 14.7 101610 76
2006-05-15 07:45:01 51°13.871 2°55.609 -999 171 14.7 101610 76
2006-05-15 07:45:05 51°13.877 2°55.604 -999 184 14.7 101600 76
2006-05-15 07:45:11 51°13.887 2°55.597 -999 225 14.7 101600 76
2006-05-15 07:45:15 51°13.893 2°55.592 -999 226 14.7 101600 76
2006-05-15 07:45:21 51°13.903 2°55.586 -999 210 14.7 101600 76
2006-05-15 07:45:25 51°13.909 2°55.581 -999 210 14.7 101600 76
2006-05-15 07:45:31 51°13.919 2°55.574 -999 205 14.7 101600 76
2006-05-15 07:45:35 51°13.926 2°55.57 -999 203 14.8 101610 76
2006-05-15 07:45:40 51°13.934 2°55.564 -999 204 14.8 101610 76
2006-05-15 07:45:45 51°13.943 2°55.559 -999 192 14.8 101610 76
2006-05-15 07:45:51 51°13.953 2°55.552 -999 192 14.8 101610 76
2006-05-15 07:45:55 51°13.96 2°55.547 -999 197 14.8 101600 76
2006-05-15 07:46:00 51°13.968 2°55.541 -999 228 14.8 101600 76
2006-05-15 07:46:05 51°13.977 2°55.534 -999 228 14.8 101610 76
2006-05-15 07:46:11 51°13.987 2°55.526 -999 213 14.8 101610 76
2006-05-15 07:46:15 51°13.994 2°55.521 -999 212 14.8 101610 76
2006-05-15 07:46:21 51°14.004 2°55.513 -999 212 14.8 101610 76
2006-05-15 07:46:25 51°14.01 2°55.508 -999 212 14.8 101600 76
2006-05-15 07:46:31 51°14.021 2°55.5 -999 212 14.8 101600 76
2006-05-15 07:46:35 51°14.028 2°55.495 -999 213 14.9 101600 76
2006-05-15 07:46:40 51°14.036 2°55.488 -999 213 14.9 101600 76
2006-05-15 07:46:45 51°14.045 2°55.481 -999 213 14.9 101610 76
2006-05-15 07:46:50 51°14.053 2°55.474 -999 213 14.9 101610 76
2006-05-15 07:46:55 51°14.061 2°55.467 -999 213 14.9 101610 76
2006-05-15 07:47:00 51°14.07 2°55.46 -999 213 14.9 101610 76
2006-05-15 07:47:05 51°14.078 2°55.453 -999 213 14.9 101610 75
2006-05-15 07:47:10 51°14.086 2°55.445 -999 212 14.9 101610 75
2006-05-15 07:47:15 51°14.095 2°55.438 -999 212 14.9 101600 75
2006-05-15 07:47:20 51°14.103 2°55.431 -999 213 14.9 101600 75
2006-05-15 07:47:25 51°14.111 2°55.423 -999 220 14.9 101610 75
2006-05-15 07:47:29 51°14.118 2°55.417 -999 220 14.9 101610 75
2006-05-15 07:47:35 51°14.128 2°55.409 -999 212 14.9 101610 75
2006-05-15 07:47:40 51°14.137 2°55.401 -999 212 14.9 101610 75
2006-05-15 07:47:45 51°14.145 2°55.393 -999 212 14.9 101600 75
2006-05-15 07:47:50 51°14.153 2°55.386 -999 212 14.9 101600 75
2006-05-15 07:47:55 51°14.161 2°55.377 -999 212 14.9 101610 75
2006-05-15 07:47:58 51°14.166 2°55.372 -999 212 14.9 101610 75
2006-05-15 07:48:04 51°14.176 2°55.361 -999 212 15 101600 75
2006-05-15 07:48:10 51°14.186 2°55.35 -999 212 15 101600 75
2006-05-15 07:48:14 51°14.193 2°55.343 -999 213 15 101610 75
2006-05-15 07:48:20 51°14.203 2°55.332 -999 214 15 101610 75
2006-05-15 07:48:24 51°14.21 2°55.324 -999 258 15 101600 75
2006-05-15 07:48:30 51°14.22 2°55.311 -999 265 15 101600 75
2006-05-15 07:48:35 51°14.228 2°55.3 -999 271 15 101610 75
2006-05-15 07:48:40 51°14.237 2°55.288 -999 273 15 101610 75
2006-05-15 07:48:45 51°14.245 2°55.276 -999 281 15 101600 75
2006-05-15 07:48:50 51°14.253 2°55.264 -999 284 15 101600 75
2006-05-15 07:48:55 51°14.261 2°55.251 -999 314 15.1 101600 75
2006-05-15 07:49:00 51°14.269 2°55.238 -999 317 15.1 101600 75
2006-05-15 07:49:05 51°14.277 2°55.224 -999 319 15.1 101610 75
2006-05-15 07:49:11 51°14.287 2°55.208 -999 333 15.1 101610 75
2006-05-15 07:49:15 51°14.294 2°55.197 -999 351 15.1 101600 74
2006-05-15 07:49:20 51°14.302 2°55.184 -999 352 15.1 101600 74
2006-05-15 07:49:25 51°14.31 2°55.17 -999 345 15.1 101610 74
2006-05-15 07:49:30 51°14.318 2°55.156 -999 336 15.1 101610 74
2006-05-15 07:49:35 51°14.326 2°55.142 -999 338 15.1 101610 74
2006-05-15 07:49:40 51°14.334 2°55.128 -999 340 15.1 101610 74
2006-05-15 07:49:45 51°14.342 2°55.114 -999 344 15.1 101610 74
2006-05-15 07:49:50 51°14.35 2°55.099 -999 341 15.1 101610 74
2006-05-15 07:49:55 51°14.358 2°55.085 -999 338 15.1 101610 74
2006-05-15 07:50:00 51°14.366 2°55.07 -999 323 15.1 101610 74
2006-05-15 07:50:05 51°14.374 2°55.055 -999 300 15.1 101610 74
2006-05-15 07:50:10 51°14.381 2°55.04 -999 284 15.1 101610 74
2006-05-15 07:50:14 51°14.387 2°55.028 -999 297 15.2 101610 74
2006-05-15 07:50:20 51°14.395 2°55.009 -999 318 15.2 101610 74
2006-05-15 07:50:24 51°14.4 2°54.996 -999 42 15.2 101610 74
2006-05-15 07:50:29 51°14.406 2°54.979 -999 308 15.2 101610 74
2006-05-15 07:50:35 51°14.413 2°54.958 -999 325 15.2 101610 74
2006-05-15 07:50:40 51°14.418 2°54.941 -999 322 15.2 101610 74
2006-05-15 07:50:45 51°14.422 2°54.923 -999 318 15.2 101610 74
2006-05-15 07:50:49 51°14.425 2°54.908 -999 316 15.2 101610 74
2006-05-15 07:50:55 51°14.429 2°54.886 -999 301 15.2 101610 74
2006-05-15 07:51:00 51°14.432 2°54.867 -999 44 15.2 101610 74
2006-05-15 07:51:05 51°14.436 2°54.849 -999 328 15.2 101610 74
2006-05-15 07:51:10 51°14.439 2°54.829 -999 325 15.2 101610 74
2006-05-15 07:51:15 51°14.441 2°54.809 -999 319 15.2 101610 73
2006-05-15 07:51:20 51°14.444 2°54.788 -999 228 15.2 101610 73
2006-05-15 07:51:25 51°14.446 2°54.766 -999 39 15.2 101600 73
2006-05-15 07:51:29 51°14.448 2°54.748 -999 313 15.2 101600 73
2006-05-15 07:51:35 51°14.451 2°54.72 -999 42 15.2 101600 73
2006-05-15 07:51:40 51°14.455 2°54.696 -999 312 15.2 101600 73
2006-05-15 07:51:45 51°14.458 2°54.671 -999 313 15.2 101600 73
2006-05-15 07:51:49 51°14.462 2°54.651 -999 315 15.2 101600 73
2006-05-15 07:51:55 51°14.467 2°54.621 -999 228 15.1 101600 73
2006-05-15 07:51:59 51°14.472 2°54.6 -999 318 15.1 101600 73
2006-05-15 07:52:05 51°14.478 2°54.569 -999 43 15.1 101600 72
2006-05-15 07:52:10 51°14.484 2°54.543 -999 317 15.1 101600 72
2006-05-15 07:52:15 51°14.491 2°54.516 -999 318 15.1 101610 72
2006-05-15 07:52:20 51°14.498 2°54.489 -999 320 15.1 101610 72
2006-05-15 07:52:25 51°14.504 2°54.462 -999 323 15.1 101610 72
2006-05-15 07:52:30 51°14.51 2°54.434 -999 323 15.1 101610 72
2006-05-15 07:52:33 51°14.514 2°54.417 -999 331 15.1 101610 72
2006-05-15 07:52:40 51°14.522 2°54.378 -999 328 15.1 101610 72
2006-05-15 07:52:45 51°14.528 2°54.349 -999 318 15.1 101610 72
2006-05-15 07:52:50 51°14.533 2°54.32 -999 318 15.1 101610 72
2006-05-15 07:52:55 51°14.539 2°54.291 -999 324 15.1 101610 72
2006-05-15 07:53:00 51°14.544 2°54.262 -999 322 15.1 101610 72
2006-05-15 07:53:04 51°14.547 2°54.238 -999 314 15.1 101610 72
2006-05-15 07:53:09 51°14.552 2°54.208 -999 325 15.1 101610 72
2006-05-15 07:53:14 51°14.556 2°54.179 -999 337 15.1 101610 72
2006-05-15 07:53:20 51°14.561 2°54.143 -999 332 15.1 101610 72
2006-05-15 07:53:25 51°14.566 2°54.113 -999 332 15 101610 72
2006-05-15 07:53:30 51°14.571 2°54.084 -999 326 15 101610 72
2006-05-15 07:53:35 51°14.576 2°54.055 -999 320 15 101600 72
2006-05-15 07:53:40 51°14.582 2°54.026 -999 328 15 101600 72
2006-05-15 07:53:45 51°14.588 2°53.997 -999 325 15 101600 73
2006-05-15 07:53:50 51°14.593 2°53.968 -999 328 15 101600 73
2006-05-15 07:53:55 51°14.599 2°53.94 -999 328 15 101600 73
2006-05-15 07:54:00 51°14.605 2°53.911 -999 328 15 101600 73
2006-05-15 07:54:05 51°14.61 2°53.883 -999 320 15 101600 73
2006-05-15 07:54:09 51°14.614 2°53.859 -999 326 15 101600 73
2006-05-15 07:54:15 51°14.62 2°53.825 -999 323 15 101600 73
2006-05-15 07:54:20 51°14.625 2°53.796 -999 325 15 101600 73
2006-05-15 07:54:25 51°14.629 2°53.767 -999 325 14.9 101600 73
2006-05-15 07:54:28 51°14.631 2°53.749 -999 325 14.9 101600 73
2006-05-15 07:54:35 51°14.636 2°53.709 -999 321 14.9 101610 73
2006-05-15 07:54:40 51°14.64 2°53.68 -999 321 14.9 101610 73
2006-05-15 07:54:45 51°14.643 2°53.652 -999 322 14.9 101600 73
2006-05-15 07:54:49 51°14.645 2°53.629 -999 320 14.9 101600 73
2006-05-15 07:54:54 51°14.647 2°53.601 -999 318 14.9 101600 73
2006-05-15 07:55:00 51°14.649 2°53.567 -999 323 14.9 101600 73
2006-05-15 07:55:05 51°14.651 2°53.538 -999 331 14.9 101590 74
2006-05-15 07:55:10 51°14.652 2°53.509 -999 331 14.9 101590 74
2006-05-15 07:55:15 51°14.653 2°53.48 -999 327 14.9 101600 73
2006-05-15 07:55:20 51°14.654 2°53.451 -999 324 14.9 101600 73
2006-05-15 07:55:25 51°14.655 2°53.422 -999 325 14.9 101600 74
2006-05-15 07:55:30 51°14.655 2°53.393 -999 329 14.9 101600 74
2006-05-15 07:55:34 51°14.655 2°53.369 -999 332 14.9 101600 74
2006-05-15 07:55:40 51°14.654 2°53.334 -999 331 14.9 101600 74
2006-05-15 07:55:45 51°14.654 2°53.305 -999 329 14.8 101600 74
2006-05-15 07:55:49 51°14.653 2°53.281 -999 326 14.8 101600 74
2006-05-15 07:55:55 51°14.651 2°53.246 -999 328 14.9 101590 73
2006-05-15 07:56:00 51°14.65 2°53.216 -999 328 14.9 101590 73
2006-05-15 07:56:05 51°14.649 2°53.186 -999 325 14.8 101590 74
2006-05-15 07:56:09 51°14.647 2°53.163 -999 330 14.8 101590 74
2006-05-15 07:56:15 51°14.646 2°53.127 -999 329 14.8 101590 74
2006-05-15 07:56:20 51°14.645 2°53.097 -999 332 14.8 101590 74
2006-05-15 07:56:25 51°14.644 2°53.068 -999 333 14.8 101590 74
2006-05-15 07:56:29 51°14.644 2°53.044 -999 330 14.8 101590 74
2006-05-15 07:56:35 51°14.644 2°53.008 -999 332 14.7 101600 74
2006-05-15 07:56:40 51°14.644 2°52.978 -999 331 14.7 101600 74
2006-05-15 07:56:45 51°14.644 2°52.948 -999 328 14.7 101600 74
2006-05-15 07:56:49 51°14.645 2°52.924 -999 325 14.7 101600 74
2006-05-15 07:56:55 51°14.645 2°52.888 -999 324 14.7 101600 74
2006-05-15 07:56:59 51°14.644 2°52.864 -999 331 14.7 101600 74
2006-05-15 07:57:05 51°14.643 2°52.828 -999 330 14.7 101600 75
2006-05-15 07:57:09 51°14.642 2°52.803 -999 333 14.7 101600 75
2006-05-15 07:57:15 51°14.639 2°52.767 -999 334 14.7 101590 75
2006-05-15 07:57:19 51°14.636 2°52.743 -999 331 14.7 101590 75
2006-05-15 07:57:25 51°14.632 2°52.707 -999 331 14.7 101590 75
2006-05-15 07:57:30 51°14.627 2°52.677 -999 331 14.7 101590 75
2006-05-15 07:57:35 51°14.623 2°52.647 -999 332 14.6 101590 75
2006-05-15 07:57:40 51°14.619 2°52.617 -999 333 14.6 101590 75
2006-05-15 07:57:45 51°14.615 2°52.587 -999 331 14.6 101590 75
2006-05-15 07:57:50 51°14.611 2°52.557 -999 327 14.6 101590 75
2006-05-15 07:57:55 51°14.607 2°52.526 -999 325 14.6 101590 75
2006-05-15 07:58:00 51°14.603 2°52.496 -999 327 14.6 101590 75
2006-05-15 07:58:05 51°14.599 2°52.466 -999 332 14.6 101590 74
2006-05-15 07:58:09 51°14.596 2°52.441 -999 331 14.6 101590 74
2006-05-15 07:58:15 51°14.592 2°52.405 -999 336 14.6 101590 75
2006-05-15 07:58:20 51°14.588 2°52.375 -999 330 14.6 101590 75
2006-05-15 07:58:25 51°14.584 2°52.345 -999 334 14.6 101590 75
2006-05-15 07:58:30 51°14.58 2°52.314 -999 336 14.6 101590 75
2006-05-15 07:58:34 51°14.577 2°52.29 -999 337 14.6 101590 75
2006-05-15 07:58:40 51°14.572 2°52.254 -999 332 14.6 101590 75
2006-05-15 07:58:45 51°14.568 2°52.224 -999 329 14.6 101590 75
2006-05-15 07:58:49 51°14.565 2°52.2 -999 334 14.6 101590 75
2006-05-15 07:58:55 51°14.56 2°52.163 -999 327 14.6 101590 75
2006-05-15 07:58:59 51°14.557 2°52.139 -999 331 14.6 101590 75
2006-05-15 07:59:04 51°14.554 2°52.109 -999 331 14.6 101590 75
2006-05-15 07:59:10 51°14.55 2°52.072 -999 330 14.6 101590 75
2006-05-15 07:59:15 51°14.547 2°52.042 -999 334 14.6 101590 75
2006-05-15 07:59:20 51°14.544 2°52.011 -999 333 14.6 101590 75
2006-05-15 07:59:25 51°14.542 2°51.98 -999 331 14.6 101590 75
2006-05-15 07:59:30 51°14.54 2°51.95 -999 325 14.6 101590 75
2006-05-15 07:59:35 51°14.539 2°51.919 -999 321 14.6 101590 76
2006-05-15 07:59:39 51°14.538 2°51.895 -999 325 14.6 101590 76
2006-05-15 07:59:45 51°14.538 2°51.858 -999 328 14.6 101590 76
2006-05-15 07:59:50 51°14.538 2°51.827 -999 326 14.6 101590 76
2006-05-15 07:59:55 51°14.538 2°51.797 -999 327 14.5 101590 76
2006-05-15 08:00:00 51°14.538 2°51.766 -999 324 14.5 101590 76
2006-05-15 08:00:05 51°14.538 2°51.735 -999 322 14.5 101590 76
2006-05-15 08:00:08 51°14.538 2°51.717 -999 324 14.5 101590 76
2006-05-15 08:00:15 51°14.537 2°51.674 -999 323 14.5 101590 76
2006-05-15 08:00:19 51°14.536 2°51.649 -999 323 14.5 101590 76
2006-05-15 08:00:25 51°14.535 2°51.612 -999 322 14.5 101590 76
2006-05-15 08:00:30 51°14.533 2°51.581 -999 327 14.5 101590 76
2006-05-15 08:00:35 51°14.53 2°51.55 -999 327 14.5 101580 76
2006-05-15 08:00:40 51°14.526 2°51.52 -999 329 14.5 101580 76
2006-05-15 08:00:45 51°14.522 2°51.489 -999 331 14.5 101580 76
2006-05-15 08:00:49 51°14.518 2°51.465 -999 330 14.5 101580 76
2006-05-15 08:00:55 51°14.512 2°51.429 -999 332 14.5 101590 76
2006-05-15 08:01:00 51°14.506 2°51.399 -999 335 14.5 101590 76
2006-05-15 08:01:05 51°14.501 2°51.369 -999 332 14.5 101590 76
2006-05-15 08:01:09 51°14.497 2°51.345 -999 335 14.5 101590 76
2006-05-15 08:01:15 51°14.49 2°51.31 -999 331 14.5 101590 76
2006-05-15 08:01:19 51°14.486 2°51.286 -999 333 14.5 101590 76
2006-05-15 08:01:25 51°14.479 2°51.25 -999 329 14.5 101590 77
2006-05-15 08:01:30 51°14.474 2°51.22 -999 327 14.5 101590 77
2006-05-15 08:01:35 51°14.47 2°51.189 -999 327 14.5 101590 77
2006-05-15 08:01:39 51°14.467 2°51.165 -999 328 14.5 101590 77
2006-05-15 08:01:45 51°14.464 2°51.128 -999 323 14.5 101590 77
2006-05-15 08:01:50 51°14.462 2°51.097 -999 324 14.5 101580 77
2006-05-15 08:01:55 51°14.46 2°51.066 -999 322 14.5 101580 76
2006-05-15 08:02:00 51°14.458 2°51.036 -999 325 14.5 101580 76
2006-05-15 08:02:05 51°14.457 2°51.005 -999 324 14.5 101580 76
2006-05-15 08:02:10 51°14.455 2°50.974 -999 325 14.5 101590 76
2006-05-15 08:02:15 51°14.453 2°50.943 -999 328 14.4 101590 76
2006-05-15 08:02:20 51°14.451 2°50.912 -999 330 14.4 101590 76
2006-05-15 08:02:25 51°14.448 2°50.881 -999 327 14.4 101580 76
2006-05-15 08:02:30 51°14.444 2°50.85 -999 327 14.4 101580 76
2006-05-15 08:02:35 51°14.44 2°50.82 -999 327 14.4 101580 76
2006-05-15 08:02:40 51°14.435 2°50.79 -999 332 14.4 101580 76
2006-05-15 08:02:45 51°14.429 2°50.76 -999 332 14.4 101590 77
2006-05-15 08:02:49 51°14.425 2°50.736 -999 334 14.4 101590 77
2006-05-15 08:02:55 51°14.418 2°50.7 -999 330 14.4 101580 77
2006-05-15 08:03:00 51°14.413 2°50.669 -999 331 14.4 101580 77
2006-05-15 08:03:05 51°14.407 2°50.64 -999 328 14.4 101580 77
2006-05-15 08:03:10 51°14.402 2°50.609 -999 328 14.4 101580 77
2006-05-15 08:03:15 51°14.397 2°50.579 -999 329 14.4 101590 77
2006-05-15 08:03:20 51°14.392 2°50.549 -999 335 14.4 101590 77
2006-05-15 08:03:25 51°14.386 2°50.519 -999 334 14.4 101590 77
2006-05-15 08:03:30 51°14.381 2°50.489 -999 337 14.4 101590 77
2006-05-15 08:03:34 51°14.377 2°50.465 -999 332 14.4 101590 77
2006-05-15 08:03:40 51°14.371 2°50.428 -999 333 14.4 101590 77
2006-05-15 08:03:45 51°14.366 2°50.398 -999 333 14.4 101580 77
2006-05-15 08:03:49 51°14.363 2°50.373 -999 329 14.4 101580 77
2006-05-15 08:03:55 51°14.358 2°50.337 -999 327 14.4 101580 77
2006-05-15 08:04:00 51°14.356 2°50.306 -999 330 14.4 101580 77
2006-05-15 08:04:05 51°14.353 2°50.275 -999 329 14.4 101590 78
2006-05-15 08:04:09 51°14.352 2°50.25 -999 330 14.4 101590 78
2006-05-15 08:04:14 51°14.349 2°50.219 -999 330 14.4 101580 78
2006-05-15 08:04:19 51°14.347 2°50.187 -999 328 14.4 101580 78
2006-05-15 08:04:25 51°14.344 2°50.15 -999 327 14.4 101580 78
2006-05-15 08:04:29 51°14.343 2°50.125 -999 325 14.4 101580 78
2006-05-15 08:04:35 51°14.339 2°50.088 -999 330 14.4 101580 78
2006-05-15 08:04:40 51°14.335 2°50.057 -999 329 14.4 101580 78
2006-05-15 08:04:45 51°14.331 2°50.026 -999 332 14.4 101580 78
2006-05-15 08:04:50 51°14.325 2°49.995 -999 328 14.4 101580 78
2006-05-15 08:04:55 51°14.321 2°49.965 -999 333 14.4 101590 78
2006-05-15 08:05:00 51°14.315 2°49.935 -999 333 14.4 101590 78
2006-05-15 08:05:05 51°14.309 2°49.904 -999 330 14.4 101580 78
2006-05-15 08:05:09 51°14.304 2°49.88 -999 332 14.4 101580 78
2006-05-15 08:05:15 51°14.297 2°49.844 -999 332 14.4 101580 78
2006-05-15 08:05:20 51°14.29 2°49.814 -999 332 14.4 101580 78
2006-05-15 08:05:25 51°14.284 2°49.784 -999 332 14.4 101580 78
2006-05-15 08:05:30 51°14.278 2°49.753 -999 331 14.4 101580 78
2006-05-15 08:05:35 51°14.272 2°49.723 -999 330 14.4 101580 78
2006-05-15 08:05:39 51°14.268 2°49.698 -999 331 14.4 101580 78
2006-05-15 08:05:45 51°14.261 2°49.661 -999 331 14.3 101580 78
2006-05-15 08:05:48 51°14.258 2°49.643 -999 328 14.3 101580 78
2006-05-15 08:05:55 51°14.252 2°49.599 -999 330 14.4 101580 78
2006-05-15 08:05:59 51°14.249 2°49.574 -999 329 14.4 101580 78
2006-05-15 08:06:05 51°14.243 2°49.537 -999 333 14.4 101580 78
2006-05-15 08:06:09 51°14.24 2°49.512 -999 330 14.4 101580 78
2006-05-15 08:06:15 51°14.235 2°49.474 -999 331 14.3 101590 78
2006-05-15 08:06:19 51°14.232 2°49.449 -999 329 14.3 101590 78
2006-05-15 08:06:25 51°14.226 2°49.412 -999 328 14.3 101580 78
2006-05-15 08:06:29 51°14.223 2°49.387 -999 330 14.3 101580 78
2006-05-15 08:06:35 51°14.216 2°49.351 -999 328 14.3 101580 78
2006-05-15 08:06:40 51°14.211 2°49.32 -999 328 14.3 101580 78
2006-05-15 08:06:44 51°14.206 2°49.295 -999 333 14.3 101580 78
2006-05-15 08:06:49 51°14.2 2°49.265 -999 331 14.3 101580 78
2006-05-15 08:06:54 51°14.194 2°49.234 -999 330 14.3 101590 78
2006-05-15 08:07:00 51°14.187 2°49.198 -999 330 14.3 101590 78
2006-05-15 08:07:05 51°14.181 2°49.167 -999 331 14.3 101580 78
2006-05-15 08:07:09 51°14.176 2°49.143 -999 335 14.3 101580 78
2006-05-15 08:07:15 51°14.169 2°49.107 -999 332 14.3 101580 78
2006-05-15 08:07:20 51°14.164 2°49.076 -999 330 14.3 101580 78
2006-05-15 08:07:25 51°14.158 2°49.046 -999 333 14.3 101580 78
2006-05-15 08:07:29 51°14.154 2°49.021 -999 330 14.3 101580 78
2006-05-15 08:07:35 51°14.149 2°48.983 -999 332 14.3 101590 78
2006-05-15 08:07:39 51°14.145 2°48.959 -999 329 14.3 101590 78
2006-05-15 08:07:45 51°14.139 2°48.922 -999 329 14.3 101580 79
2006-05-15 08:07:49 51°14.135 2°48.897 -999 330 14.3 101580 79
2006-05-15 08:07:55 51°14.129 2°48.86 -999 331 14.3 101580 79
2006-05-15 08:08:00 51°14.124 2°48.829 -999 333 14.3 101580 79
2006-05-15 08:08:05 51°14.119 2°48.799 -999 328 14.3 101580 79
2006-05-15 08:08:09 51°14.114 2°48.774 -999 330 14.3 101580 79
2006-05-15 08:08:15 51°14.108 2°48.738 -999 332 14.3 101580 79
2006-05-15 08:08:20 51°14.102 2°48.707 -999 328 14.3 101580 79
2006-05-15 08:08:25 51°14.095 2°48.677 -999 327 14.3 101580 79
2006-05-15 08:08:30 51°14.089 2°48.647 -999 326 14.3 101580 79
2006-05-15 08:08:34 51°14.084 2°48.623 -999 330 14.3 101580 79
2006-05-15 08:08:39 51°14.079 2°48.592 -999 325 14.3 101580 79
2006-05-15 08:08:45 51°14.072 2°48.556 -999 326 14.3 101580 79
2006-05-15 08:08:49 51°14.068 2°48.531 -999 325 14.3 101580 79
2006-05-15 08:08:55 51°14.062 2°48.494 -999 324 14.3 101580 79
2006-05-15 08:09:00 51°14.057 2°48.463 -999 322 14.3 101580 79
2006-05-15 08:09:05 51°14.053 2°48.432 -999 321 14.3 101580 79
2006-05-15 08:09:09 51°14.05 2°48.407 -999 321 14.3 101580 79
2006-05-15 08:09:15 51°14.046 2°48.369 -999 322 14.3 101580 79
2006-05-15 08:09:20 51°14.043 2°48.339 -999 323 14.3 101580 79
2006-05-15 08:09:25 51°14.04 2°48.31 -999 41 14.3 101580 79
2006-05-15 08:09:30 51°14.037 2°48.282 -999 316 14.3 101580 79
2006-05-15 08:09:35 51°14.034 2°48.256 -999 43 14.3 101580 79
2006-05-15 08:09:40 51°14.032 2°48.232 -999 44 14.3 101580 79
2006-05-15 08:09:45 51°14.03 2°48.209 -999 316 14.3 101580 79
2006-05-15 08:09:50 51°14.028 2°48.187 -999 315 14.3 101580 79
2006-05-15 08:09:55 51°14.026 2°48.167 -999 309 14.3 101590 79
2006-05-15 08:10:00 51°14.024 2°48.148 -999 308 14.3 101590 79
2006-05-15 08:10:05 51°14.021 2°48.129 -999 305 14.3 101580 79
2006-05-15 08:10:10 51°14.019 2°48.112 -999 308 14.3 101580 79
2006-05-15 08:10:15 51°14.016 2°48.096 -999 308 14.3 101580 79
2006-05-15 08:10:20 51°14.013 2°48.081 -999 309 14.3 101580 79
2006-05-15 08:10:25 51°14.01 2°48.067 -999 314 14.4 101590 79
2006-05-15 08:10:29 51°14.007 2°48.056 -999 312 14.4 101590 79
2006-05-15 08:10:35 51°14.003 2°48.043 -999 313 14.3 101590 79
2006-05-15 08:10:40 51°14 2°48.033 -999 313 14.3 101590 79
2006-05-15 08:10:45 51°13.997 2°48.024 -999 43 14.3 101590 79
2006-05-15 08:10:48 51°13.995 2°48.02 -999 42 14.3 101590 79
2006-05-15 08:10:55 51°13.991 2°48.011 -999 316 14.4 101590 79
2006-05-15 08:11:00 51°13.989 2°48.007 -999 228 14.4 101590 79
2006-05-15 08:11:05 51°13.988 2°48.003 -999 316 14.3 101590 80
2006-05-15 08:11:09 51°13.988 2°48 -999 308 14.3 101590 80
2006-05-15 08:11:15 51°13.987 2°47.998 -999 310 14.4 101590 80
2006-05-15 08:11:19 51°13.987 2°47.996 -999 309 14.4 101590 80
2006-05-15 08:11:25 51°13.987 2°47.994 -999 308 14.4 101600 80
2006-05-15 08:11:29 51°13.987 2°47.992 -999 305 14.4 101600 80
2006-05-15 08:11:35 51°13.986 2°47.99 -999 304 14.4 101590 80
2006-05-15 08:11:41 51°13.986 2°47.988 -999 303 14.4 101590 80
2006-05-15 08:11:45 51°13.986 2°47.986 -999 304 14.4 101600 80
2006-05-15 08:11:49 51°13.985 2°47.984 -999 300 14.4 101600 80
2006-05-15 08:11:55 51°13.984 2°47.982 -999 298 14.4 101590 80
2006-05-15 08:12:01 51°13.984 2°47.979 -999 299 14.4 101590 80
2006-05-15 08:12:05 51°13.983 2°47.978 -999 304 14.4 101590 80
2006-05-15 08:12:11 51°13.983 2°47.976 -999 292 14.4 101590 80
2006-05-15 08:12:15 51°13.982 2°47.974 -999 297 14.4 101590 80
2006-05-15 08:12:20 51°13.981 2°47.972 -999 295 14.4 101590 80
2006-05-15 08:12:25 51°13.981 2°47.97 -999 298 14.4 101600 80
2006-05-15 08:12:29 51°13.98 2°47.969 -999 299 14.4 101600 80
2006-05-15 08:12:35 51°13.979 2°47.966 -999 299 14.4 101590 80
2006-05-15 08:12:39 51°13.979 2°47.964 -999 297 14.4 101590 80
2006-05-15 08:12:44 51°13.978 2°47.963 -999 298 14.4 101590 80
2006-05-15 08:12:50 51°13.977 2°47.96 -999 295 14.4 101590 80
2006-05-15 08:12:55 51°13.976 2°47.958 -999 298 14.4 101590 80
2006-05-15 08:12:58 51°13.976 2°47.956 -999 296 14.4 101590 80
2006-05-15 08:13:05 51°13.975 2°47.953 -999 297 14.5 101590 80
2006-05-15 08:13:10 51°13.974 2°47.951 -999 292 14.5 101590 80
2006-05-15 08:13:15 51°13.974 2°47.949 -999 290 14.5 101590 80
2006-05-15 08:13:20 51°13.973 2°47.947 -999 291 14.5 101590 80
2006-05-15 08:13:25 51°13.972 2°47.944 -999 289 14.5 101590 80
2006-05-15 08:13:29 51°13.971 2°47.943 -999 285 14.5 101590 80
2006-05-15 08:13:35 51°13.971 2°47.94 -999 291 14.5 101590 80
2006-05-15 08:13:40 51°13.97 2°47.938 -999 287 14.5 101590 80
2006-05-15 08:13:45 51°13.969 2°47.935 -999 285 14.5 101590 80
2006-05-15 08:13:49 51°13.968 2°47.934 -999 285 14.5 101590 80
2006-05-15 08:13:55 51°13.968 2°47.931 -999 287 14.5 101590 80
2006-05-15 08:13:59 51°13.967 2°47.929 -999 290 14.5 101590 80
2006-05-15 08:14:05 51°13.966 2°47.926 -999 291 14.5 101590 80
2006-05-15 08:14:10 51°13.965 2°47.924 -999 281 14.5 101590 80
2006-05-15 08:14:15 51°13.964 2°47.922 -999 282 14.5 101590 80
2006-05-15 08:14:20 51°13.964 2°47.919 -999 284 14.5 101590 80
2006-05-15 08:14:25 51°13.963 2°47.917 -999 284 14.5 101590 80
2006-05-15 08:14:29 51°13.962 2°47.915 -999 292 14.5 101590 80
2006-05-15 08:14:35 51°13.961 2°47.912 -999 280 14.5 101590 80
2006-05-15 08:14:39 51°13.961 2°47.91 -999 282 14.5 101590 80
2006-05-15 08:14:44 51°13.96 2°47.907 -999 280 14.5 101590 80
2006-05-15 08:14:50 51°13.959 2°47.905 -999 279 14.5 101590 80
2006-05-15 08:14:55 51°13.958 2°47.902 -999 280 14.5 101590 80
2006-05-15 08:15:00 51°13.958 2°47.9 -999 270 14.5 101590 80
2006-05-15 08:15:05 51°13.957 2°47.897 -999 280 14.5 101590 80
2006-05-15 08:15:10 51°13.956 2°47.895 -999 277 14.5 101590 80
2006-05-15 08:15:15 51°13.955 2°47.892 -999 277 14.5 101590 80
2006-05-15 08:15:19 51°13.955 2°47.89 -999 275 14.5 101590 80
2006-05-15 08:15:25 51°13.954 2°47.887 -999 275 14.5 101590 80
2006-05-15 08:15:29 51°13.953 2°47.886 -999 270 14.5 101590 80
2006-05-15 08:15:35 51°13.953 2°47.883 -999 269 14.5 101590 80
2006-05-15 08:15:39 51°13.952 2°47.88 -999 271 14.5 101590 80
2006-05-15 08:15:45 51°13.951 2°47.877 -999 269 14.5 101590 80
2006-05-15 08:15:49 51°13.951 2°47.875 -999 267 14.5 101590 80
2006-05-15 08:15:55 51°13.95 2°47.872 -999 265 14.5 101590 79
2006-05-15 08:16:00 51°13.949 2°47.87 -999 264 14.5 101590 79
2006-05-15 08:16:05 51°13.949 2°47.867 -999 266 14.5 101590 79
2006-05-15 08:16:09 51°13.948 2°47.865 -999 263 14.5 101590 79
2006-05-15 08:16:15 51°13.947 2°47.862 -999 264 14.5 101590 79
2006-05-15 08:16:19 51°13.947 2°47.86 -999 264 14.5 101590 79
2006-05-15 08:16:25 51°13.946 2°47.857 -999 266 14.5 101590 79
2006-05-15 08:16:29 51°13.945 2°47.855 -999 265 14.5 101590 79
2006-05-15 08:16:35 51°13.944 2°47.852 -999 264 14.5 101590 79
2006-05-15 08:16:38 51°13.944 2°47.85 -999 263 14.5 101590 79
2006-05-15 08:16:45 51°13.943 2°47.847 -999 262 14.5 101590 79
2006-05-15 08:16:50 51°13.942 2°47.844 -999 264 14.5 101590 79
2006-05-15 08:16:55 51°13.942 2°47.842 -999 263 14.5 101590 78
2006-05-15 08:17:00 51°13.941 2°47.839 -999 263 14.5 101590 78
2006-05-15 08:17:05 51°13.94 2°47.836 -999 262 14.5 101590 78
2006-05-15 08:17:09 51°13.94 2°47.834 -999 266 14.5 101590 78
2006-05-15 08:17:15 51°13.939 2°47.831 -999 262 14.6 101590 78
2006-05-15 08:17:19 51°13.938 2°47.829 -999 268 14.6 101590 78
2006-05-15 08:17:25 51°13.938 2°47.826 -999 262 14.5 101590 78
2006-05-15 08:17:30 51°13.937 2°47.823 -999 258 14.5 101590 78
2006-05-15 08:17:35 51°13.936 2°47.82 -999 256 14.6 101590 78
2006-05-15 08:17:40 51°13.935 2°47.818 -999 255 14.6 101590 78
2006-05-15 08:17:45 51°13.935 2°47.815 -999 264 14.5 101590 78
2006-05-15 08:17:49 51°13.934 2°47.813 -999 256 14.5 101590 78
2006-05-15 08:17:55 51°13.933 2°47.81 -999 259 14.5 101590 78
2006-05-15 08:17:59 51°13.933 2°47.807 -999 259 14.5 101590 78
2006-05-15 08:18:05 51°13.932 2°47.804 -999 256 14.6 101590 78
2006-05-15 08:18:10 51°13.931 2°47.801 -999 255 14.6 101590 78
2006-05-15 08:18:15 51°13.931 2°47.798 -999 257 14.5 101590 78
2006-05-15 08:18:20 51°13.93 2°47.796 -999 259 14.5 101590 78
2006-05-15 08:18:25 51°13.929 2°47.793 -999 257 14.6 101590 78
2006-05-15 08:18:29 51°13.929 2°47.79 -999 255 14.6 101590 78
2006-05-15 08:18:35 51°13.928 2°47.787 -999 254 14.5 101590 78
2006-05-15 08:18:39 51°13.927 2°47.784 -999 254 14.5 101590 78
2006-05-15 08:18:44 51°13.926 2°47.781 -999 254 14.5 101590 78
2006-05-15 08:18:50 51°13.926 2°47.778 -999 256 14.5 101590 78
2006-05-15 08:18:55 51°13.925 2°47.775 -999 254 14.5 101590 78
2006-05-15 08:19:00 51°13.924 2°47.772 -999 254 14.5 101590 78
2006-05-15 08:19:05 51°13.923 2°47.769 -999 255 14.5 101590 78
2006-05-15 08:19:09 51°13.923 2°47.767 -999 250 14.5 101590 78
2006-05-15 08:19:15 51°13.922 2°47.763 -999 251 14.6 101590 78
2006-05-15 08:19:19 51°13.921 2°47.761 -999 253 14.6 101590 78
2006-05-15 08:19:25 51°13.921 2°47.758 -999 249 14.6 101590 78
2006-05-15 08:19:29 51°13.92 2°47.755 -999 253 14.6 101590 78
2006-05-15 08:19:35 51°13.919 2°47.752 -999 250 14.5 101590 78
2006-05-15 08:19:39 51°13.919 2°47.749 -999 252 14.5 101590 78
2006-05-15 08:19:45 51°13.918 2°47.746 -999 251 14.5 101590 78
2006-05-15 08:19:49 51°13.917 2°47.743 -999 250 14.5 101590 78
2006-05-15 08:19:55 51°13.917 2°47.74 -999 259 14.6 101590 78
2006-05-15 08:20:00 51°13.916 2°47.737 -999 259 14.6 101590 78
2006-05-15 08:20:05 51°13.915 2°47.734 -999 252 14.6 101590 78
2006-05-15 08:20:09 51°13.915 2°47.731 -999 252 14.6 101590 78
2006-05-15 08:20:15 51°13.914 2°47.727 -999 251 14.6 101590 78
2006-05-15 08:20:20 51°13.913 2°47.724 -999 254 14.6 101590 78
2006-05-15 08:20:25 51°13.913 2°47.721 -999 255 14.6 101590 78
2006-05-15 08:20:29 51°13.912 2°47.719 -999 255 14.6 101590 78
2006-05-15 08:20:35 51°13.911 2°47.715 -999 256 14.6 101590 78
2006-05-15 08:20:40 51°13.91 2°47.712 -999 254 14.6 101590 78
2006-05-15 08:20:45 51°13.91 2°47.709 -999 255 14.6 101590 78
2006-05-15 08:20:49 51°13.909 2°47.707 -999 253 14.6 101590 78
2006-05-15 08:20:55 51°13.908 2°47.703 -999 257 14.6 101590 78
2006-05-15 08:20:58 51°13.908 2°47.701 -999 258 14.6 101590 78
2006-05-15 08:21:05 51°13.907 2°47.697 -999 255 14.6 101590 78
2006-05-15 08:21:09 51°13.906 2°47.694 -999 257 14.6 101590 78
2006-05-15 08:21:15 51°13.905 2°47.691 -999 260 14.6 101590 78
2006-05-15 08:21:20 51°13.904 2°47.687 -999 260 14.6 101590 78
2006-05-15 08:21:25 51°13.904 2°47.684 -999 258 14.6 101590 78
2006-05-15 08:21:29 51°13.903 2°47.682 -999 -999 14.6 101590 78
2006-05-15 08:21:35 51°13.902 2°47.678 -999 253 14.6 101590 78
2006-05-15 08:21:39 51°13.902 2°47.676 -999 256 14.6 101590 78
2006-05-15 08:21:45 51°13.901 2°47.672 -999 259 14.6 101590 78
2006-05-15 08:21:50 51°13.9 2°47.669 -999 260 14.6 101590 78
2006-05-15 08:21:55 51°13.899 2°47.666 -999 260 14.6 101590 79
2006-05-15 08:22:00 51°13.899 2°47.662 -999 256 14.6 101590 79
2006-05-15 08:22:05 51°13.898 2°47.659 -999 257 14.6 101600 79
2006-05-15 08:22:09 51°13.897 2°47.657 -999 260 14.6 101600 79
2006-05-15 08:22:13 51°13.897 2°47.654 -999 263 14.6 101590 78
2006-05-15 08:22:20 51°13.896 2°47.65 -999 261 14.6 101590 78
2006-05-15 08:22:25 51°13.895 2°47.646 -999 258 14.6 101590 79
2006-05-15 08:22:30 51°13.894 2°47.643 -999 259 14.6 101590 79
2006-05-15 08:22:35 51°13.893 2°47.64 -999 259 14.6 101590 79
2006-05-15 08:22:39 51°13.893 2°47.638 -999 261 14.6 101590 79
2006-05-15 08:22:45 51°13.892 2°47.634 -999 261 14.6 101590 79
2006-05-15 08:22:49 51°13.891 2°47.631 -999 262 14.6 101590 79
2006-05-15 08:22:55 51°13.891 2°47.627 -999 262 14.6 101590 79
2006-05-15 08:23:00 51°13.89 2°47.624 -999 263 14.6 101590 79
2006-05-15 08:23:05 51°13.889 2°47.621 -999 260 14.6 101590 79
2006-05-15 08:23:10 51°13.888 2°47.618 -999 266 14.6 101590 79
2006-05-15 08:23:15 51°13.887 2°47.614 -999 268 14.6 101590 79
2006-05-15 08:23:19 51°13.887 2°47.612 -999 265 14.6 101590 79
2006-05-15 08:23:25 51°13.886 2°47.608 -999 262 14.6 101590 79
2006-05-15 08:23:30 51°13.885 2°47.604 -999 264 14.6 101590 79
2006-05-15 08:23:35 51°13.884 2°47.601 -999 265 14.6 101590 79
2006-05-15 08:23:40 51°13.883 2°47.598 -999 268 14.6 101590 79
2006-05-15 08:23:45 51°13.883 2°47.595 -999 267 14.6 101590 79
2006-05-15 08:23:49 51°13.882 2°47.592 -999 265 14.6 101590 79
2006-05-15 08:23:55 51°13.881 2°47.588 -999 271 14.6 101590 79
2006-05-15 08:23:59 51°13.881 2°47.585 -999 266 14.6 101590 79
2006-05-15 08:24:05 51°13.88 2°47.581 -999 268 14.6 101590 79
2006-05-15 08:24:09 51°13.879 2°47.578 -999 271 14.6 101590 79
2006-05-15 08:24:14 51°13.878 2°47.574 -999 277 14.6 101590 79
2006-05-15 08:24:19 51°13.878 2°47.569 -999 270 14.6 101590 79
2006-05-15 08:24:24 51°13.877 2°47.564 -999 272 14.6 101590 79
2006-05-15 08:24:30 51°13.876 2°47.557 -999 276 14.6 101590 79
2006-05-15 08:24:35 51°13.875 2°47.55 -999 273 14.6 101590 79
2006-05-15 08:24:40 51°13.875 2°47.541 -999 277 14.6 101590 79
2006-05-15 08:24:45 51°13.875 2°47.531 -999 279 14.6 101590 80
2006-05-15 08:24:50 51°13.875 2°47.52 -999 273 14.6 101590 80
2006-05-15 08:24:55 51°13.876 2°47.508 -999 269 14.6 101590 80
2006-05-15 08:25:00 51°13.878 2°47.496 -999 260 14.6 101590 80
2006-05-15 08:25:05 51°13.881 2°47.484 -999 265 14.6 101580 80
2006-05-15 08:25:09 51°13.884 2°47.474 -999 262 14.6 101580 80
2006-05-15 08:25:15 51°13.89 2°47.461 -999 252 14.6 101590 80
2006-05-15 08:25:20 51°13.895 2°47.45 -999 236 14.6 101590 80
2006-05-15 08:25:24 51°13.9 2°47.442 -999 244 14.6 101590 80
2006-05-15 08:25:29 51°13.906 2°47.434 -999 229 14.6 101590 80
2006-05-15 08:25:35 51°13.914 2°47.426 -999 208 14.6 101590 79
2006-05-15 08:25:40 51°13.921 2°47.42 -999 204 14.6 101590 79
2006-05-15 08:25:45 51°13.928 2°47.415 -999 185 14.6 101590 79
2006-05-15 08:25:50 51°13.935 2°47.412 -999 99 14.6 101590 79
2006-05-15 08:25:54 51°13.941 2°47.41 -999 75 14.6 101590 79
2006-05-15 08:25:59 51°13.948 2°47.408 -999 88 14.6 101590 79
2006-05-15 08:26:05 51°13.956 2°47.409 -999 113 14.6 101590 79
2006-05-15 08:26:09 51°13.961 2°47.41 -999 120 14.6 101590 79
2006-05-15 08:26:15 51°13.969 2°47.412 -999 114 14.6 101590 79
2006-05-15 08:26:19 51°13.974 2°47.415 -999 84 14.6 101590 79
2006-05-15 08:26:25 51°13.982 2°47.421 -999 93 14.6 101590 79
2006-05-15 08:26:30 51°13.988 2°47.426 -999 88 14.6 101590 79
2006-05-15 08:26:35 51°13.994 2°47.433 -999 84 14.6 101580 79
2006-05-15 08:26:39 51°13.998 2°47.439 -999 75 14.6 101580 79
2006-05-15 08:26:45 51°14.004 2°47.449 -999 71 14.6 101590 79
2006-05-15 08:26:49 51°14.007 2°47.457 -999 70 14.6 101590 79
2006-05-15 08:26:55 51°14.012 2°47.469 -999 69 14.6 101580 79
2006-05-15 08:27:00 51°14.015 2°47.479 -999 67 14.6 101580 79
2006-05-15 08:27:05 51°14.017 2°47.49 -999 60 14.6 101580 80
2006-05-15 08:27:09 51°14.019 2°47.498 -999 63 14.6 101580 80
2006-05-15 08:27:14 51°14.019 2°47.509 -999 60 14.6 101580 80
2006-05-15 08:27:20 51°14.02 2°47.521 -999 61 14.6 101580 80
2006-05-15 08:27:25 51°14.02 2°47.532 -999 59 14.6 101580 80
2006-05-15 08:27:29 51°14.02 2°47.54 -999 56 14.6 101580 80
2006-05-15 08:27:35 51°14.019 2°47.553 -999 54 14.6 101580 80
2006-05-15 08:27:40 51°14.018 2°47.563 -999 55 14.6 101580 80
2006-05-15 08:27:45 51°14.016 2°47.572 -999 55 14.5 101580 80
2006-05-15 08:27:50 51°14.015 2°47.582 -999 58 14.5 101580 80
2006-05-15 08:27:55 51°14.013 2°47.59 -999 58 14.5 101580 80
2006-05-15 08:28:00 51°14.011 2°47.599 -999 57 14.5 101580 80
2006-05-15 08:28:05 51°14.009 2°47.607 -999 61 14.5 101570 80
2006-05-15 08:28:09 51°14.007 2°47.613 -999 55 14.5 101570 80
2006-05-15 08:28:15 51°14.005 2°47.623 -999 56 14.5 101580 80
2006-05-15 08:28:20 51°14.003 2°47.631 -999 62 14.5 101580 80
2006-05-15 08:28:25 51°14.001 2°47.638 -999 60 14.5 101580 80
2006-05-15 08:28:30 51°13.998 2°47.646 -999 66 14.5 101580 80
2006-05-15 08:28:35 51°13.997 2°47.653 -999 64 14.4 101570 80
2006-05-15 08:28:40 51°13.994 2°47.66 -999 65 14.4 101570 80
2006-05-15 08:28:45 51°13.993 2°47.667 -999 70 14.4 101570 81
2006-05-15 08:28:50 51°13.991 2°47.675 -999 72 14.4 101570 81
2006-05-15 08:28:55 51°13.99 2°47.681 -999 71 14.4 101570 81
2006-05-15 08:28:59 51°13.989 2°47.687 -999 73 14.4 101570 81
2006-05-15 08:29:05 51°13.987 2°47.694 -999 73 14.4 101580 81
2006-05-15 08:29:10 51°13.986 2°47.701 -999 70 14.4 101580 81
2006-05-15 08:29:15 51°13.984 2°47.707 -999 73 14.4 101580 81
2006-05-15 08:29:20 51°13.983 2°47.713 -999 66 14.4 101580 81
2006-05-15 08:29:25 51°13.98 2°47.719 -999 63 14.4 101580 81
2006-05-15 08:29:30 51°13.978 2°47.725 -999 63 14.4 101580 81
2006-05-15 08:29:35 51°13.975 2°47.731 -999 60 14.4 101580 81
2006-05-15 08:29:39 51°13.974 2°47.735 -999 61 14.4 101580 81
2006-05-15 08:29:45 51°13.97 2°47.742 -999 56 14.3 101580 81
2006-05-15 08:29:50 51°13.967 2°47.747 -999 54 14.3 101580 81
2006-05-15 08:29:55 51°13.964 2°47.752 -999 57 14.3 101580 81
2006-05-15 08:30:00 51°13.961 2°47.757 -999 55 14.3 101580 81
2006-05-15 08:30:05 51°13.958 2°47.762 -999 55 14.3 101580 81
2006-05-15 08:30:09 51°13.955 2°47.766 -999 53 14.3 101580 81
2006-05-15 08:30:15 51°13.952 2°47.772 -999 50 14.3 101570 81
2006-05-15 08:30:20 51°13.948 2°47.776 -999 53 14.3 101570 81
2006-05-15 08:30:25 51°13.945 2°47.781 -999 57 14.3 101580 81
2006-05-15 08:30:30 51°13.942 2°47.786 -999 56 14.3 101580 81
2006-05-15 08:30:35 51°13.939 2°47.79 -999 57 14.3 101570 81
2006-05-15 08:30:39 51°13.936 2°47.794 -999 58 14.3 101570 81
2006-05-15 08:30:45 51°13.932 2°47.799 -999 54 14.3 101580 81
2006-05-15 08:30:49 51°13.93 2°47.803 -999 52 14.3 101580 81
2006-05-15 08:30:55 51°13.926 2°47.809 -999 56 14.3 101580 81
2006-05-15 08:30:59 51°13.923 2°47.812 -999 57 14.3 101580 81
2006-05-15 08:31:05 51°13.92 2°47.818 -999 55 14.3 101580 81
2006-05-15 08:31:08 51°13.918 2°47.82 -999 57 14.3 101580 81
2006-05-15 08:31:15 51°13.914 2°47.827 -999 58 14.3 101570 81
2006-05-15 08:31:19 51°13.912 2°47.83 -999 62 14.3 101570 81
2006-05-15 08:31:25 51°13.91 2°47.836 -999 66 14.3 101580 81
2006-05-15 08:31:30 51°13.908 2°47.841 -999 66 14.3 101580 81
2006-05-15 08:31:35 51°13.905 2°47.845 -999 67 14.3 101580 81
2006-05-15 08:31:40 51°13.904 2°47.85 -999 71 14.3 101580 81
2006-05-15 08:31:45 51°13.902 2°47.855 -999 65 14.3 101580 81
2006-05-15 08:31:50 51°13.9 2°47.86 -999 70 14.3 101580 81
2006-05-15 08:31:55 51°13.898 2°47.865 -999 65 14.3 101580 81
2006-05-15 08:31:59 51°13.897 2°47.868 -999 65 14.3 101580 81
2006-05-15 08:32:05 51°13.895 2°47.874 -999 66 14.3 101580 81
2006-05-15 08:32:09 51°13.893 2°47.878 -999 68 14.3 101580 81
2006-05-15 08:32:15 51°13.891 2°47.884 -999 62 14.3 101580 81
2006-05-15 08:32:20 51°13.89 2°47.889 -999 74 14.3 101580 81
2006-05-15 08:32:25 51°13.889 2°47.894 -999 72 14.3 101580 81
2006-05-15 08:32:29 51°13.888 2°47.898 -999 78 14.3 101580 81
2006-05-15 08:32:35 51°13.887 2°47.904 -999 81 14.3 101580 81
2006-05-15 08:32:40 51°13.886 2°47.908 -999 80 14.3 101580 81
2006-05-15 08:32:45 51°13.885 2°47.913 -999 81 14.3 101580 81
2006-05-15 08:32:49 51°13.885 2°47.917 -999 82 14.3 101580 81
2006-05-15 08:32:54 51°13.884 2°47.923 -999 83 14.3 101580 81
2006-05-15 08:33:00 51°13.884 2°47.929 -999 91 14.3 101580 81
2006-05-15 08:33:05 51°13.884 2°47.934 -999 91 14.3 101580 81
2006-05-15 08:33:10 51°13.884 2°47.94 -999 89 14.3 101580 81
2006-05-15 08:33:15 51°13.884 2°47.945 -999 87 14.3 101580 81
2006-05-15 08:33:20 51°13.885 2°47.951 -999 89 14.3 101580 81
2006-05-15 08:33:25 51°13.886 2°47.956 -999 89 14.3 101580 82
2006-05-15 08:33:29 51°13.886 2°47.96 -999 95 14.3 101580 82
2006-05-15 08:33:35 51°13.887 2°47.967 -999 92 14.3 101580 82
2006-05-15 08:33:40 51°13.889 2°47.972 -999 93 14.3 101580 82
2006-05-15 08:33:45 51°13.89 2°47.977 -999 98 14.3 101580 82
2006-05-15 08:33:49 51°13.891 2°47.982 -999 95 14.3 101580 82
2006-05-15 08:33:55 51°13.893 2°47.988 -999 94 14.3 101590 82
2006-05-15 08:33:58 51°13.895 2°47.991 -999 92 14.3 101590 82
2006-05-15 08:34:05 51°13.897 2°47.999 -999 95 14.4 101580 82
2006-05-15 08:34:09 51°13.898 2°48.003 -999 97 14.4 101580 82
2006-05-15 08:34:15 51°13.901 2°48.01 -999 94 14.3 101580 82
2006-05-15 08:34:19 51°13.902 2°48.014 -999 94 14.3 101580 82
2006-05-15 08:34:25 51°13.904 2°48.021 -999 91 14.4 101580 82
2006-05-15 08:34:30 51°13.906 2°48.027 -999 93 14.4 101580 82
2006-05-15 08:34:35 51°13.908 2°48.033 -999 93 14.4 101580 82
2006-05-15 08:34:39 51°13.91 2°48.037 -999 90 14.4 101580 82
2006-05-15 08:34:45 51°13.912 2°48.044 -999 90 14.4 101590 82
2006-05-15 08:34:50 51°13.914 2°48.05 -999 89 14.4 101590 82
2006-05-15 08:34:55 51°13.916 2°48.056 -999 90 14.4 101590 82
2006-05-15 08:35:00 51°13.918 2°48.062 -999 93 14.4 101590 82
2006-05-15 08:35:05 51°13.92 2°48.068 -999 94 14.4 101580 82
2006-05-15 08:35:10 51°13.921 2°48.074 -999 90 14.4 101580 82
2006-05-15 08:35:15 51°13.923 2°48.08 -999 88 14.4 101590 82
2006-05-15 08:35:20 51°13.925 2°48.085 -999 86 14.4 101590 82
2006-05-15 08:35:25 51°13.927 2°48.091 -999 95 14.4 101580 82
2006-05-15 08:35:30 51°13.929 2°48.097 -999 97 14.4 101580 82
2006-05-15 08:35:35 51°13.931 2°48.103 -999 95 14.4 101590 82
2006-05-15 08:35:40 51°13.933 2°48.109 -999 97 14.4 101590 82
2006-05-15 08:35:45 51°13.935 2°48.115 -999 96 14.4 101580 82
2006-05-15 08:35:50 51°13.937 2°48.122 -999 94 14.4 101580 82
2006-05-15 08:35:55 51°13.939 2°48.127 -999 98 14.4 101580 82
2006-05-15 08:36:00 51°13.941 2°48.133 -999 96 14.4 101580 82
2006-05-15 08:36:05 51°13.943 2°48.139 -999 96 14.4 101580 82
2006-05-15 08:36:09 51°13.944 2°48.144 -999 94 14.4 101580 82
2006-05-15 08:36:15 51°13.946 2°48.151 -999 98 14.4 101590 82
2006-05-15 08:36:20 51°13.948 2°48.157 -999 98 14.4 101590 82
2006-05-15 08:36:25 51°13.95 2°48.163 -999 97 14.5 101580 82
2006-05-15 08:36:30 51°13.952 2°48.169 -999 93 14.5 101580 82
2006-05-15 08:36:35 51°13.954 2°48.175 -999 95 14.4 101580 81
2006-05-15 08:36:40 51°13.956 2°48.181 -999 94 14.4 101580 81
2006-05-15 08:36:44 51°13.957 2°48.186 -999 99 14.5 101580 81
2006-05-15 08:36:50 51°13.96 2°48.193 -999 93 14.5 101580 81
2006-05-15 08:36:55 51°13.962 2°48.199 -999 94 14.5 101580 81
2006-05-15 08:37:00 51°13.964 2°48.205 -999 99 14.5 101580 81
2006-05-15 08:37:05 51°13.966 2°48.21 -999 99 14.5 101580 81
2006-05-15 08:37:10 51°13.968 2°48.216 -999 98 14.5 101580 81
2006-05-15 08:37:15 51°13.97 2°48.222 -999 92 14.5 101590 81
2006-05-15 08:37:20 51°13.972 2°48.228 -999 93 14.5 101590 81
2006-05-15 08:37:25 51°13.974 2°48.233 -999 92 14.5 101580 81
2006-05-15 08:37:29 51°13.975 2°48.238 -999 96 14.5 101580 81
2006-05-15 08:37:35 51°13.977 2°48.244 -999 94 14.5 101590 81
2006-05-15 08:37:39 51°13.979 2°48.249 -999 93 14.5 101590 81
2006-05-15 08:37:45 51°13.981 2°48.256 -999 94 14.5 101590 81
2006-05-15 08:37:50 51°13.984 2°48.261 -999 94 14.5 101590 81
2006-05-15 08:37:55 51°13.986 2°48.267 -999 99 14.5 101580 81
2006-05-15 08:38:00 51°13.988 2°48.272 -999 96 14.5 101580 81
2006-05-15 08:38:04 51°13.989 2°48.277 -999 97 14.5 101580 81
2006-05-15 08:38:09 51°13.991 2°48.282 -999 95 14.5 101580 81
2006-05-15 08:38:15 51°13.993 2°48.289 -999 98 14.5 101580 81
2006-05-15 08:38:19 51°13.995 2°48.293 -999 100 14.5 101580 81
2006-05-15 08:38:25 51°13.997 2°48.3 -999 98 14.5 101580 81
2006-05-15 08:38:29 51°13.999 2°48.304 -999 -999 14.5 101580 81
2006-05-15 08:38:35 51°14.001 2°48.311 -999 93 14.5 101580 81
2006-05-15 08:38:40 51°14.003 2°48.316 -999 98 14.5 101580 81
2006-05-15 08:38:44 51°14.004 2°48.321 -999 97 14.5 101590 81
2006-05-15 08:38:50 51°14.007 2°48.327 -999 94 14.5 101590 81
2006-05-15 08:38:55 51°14.009 2°48.333 -999 97 14.6 101580 81
2006-05-15 08:39:00 51°14.011 2°48.338 -999 97 14.6 101580 81
2006-05-15 08:39:05 51°14.013 2°48.344 -999 96 14.5 101580 81
2006-05-15 08:39:08 51°14.014 2°48.347 -999 95 14.5 101580 81
2006-05-15 08:39:15 51°14.017 2°48.355 -999 95 14.6 101580 80
2006-05-15 08:39:19 51°14.018 2°48.36 -999 97 14.6 101580 80
2006-05-15 08:39:25 51°14.021 2°48.366 -999 99 14.6 101580 80
2006-05-15 08:39:29 51°14.022 2°48.371 -999 96 14.6 101580 80
2006-05-15 08:39:34 51°14.024 2°48.376 -999 95 14.6 101580 80
2006-05-15 08:39:40 51°14.026 2°48.383 -999 95 14.6 101580 80
2006-05-15 08:39:45 51°14.028 2°48.389 -999 94 14.6 101580 80
2006-05-15 08:39:50 51°14.03 2°48.395 -999 97 14.6 101580 80
2006-05-15 08:39:55 51°14.032 2°48.4 -999 96 14.6 101580 80
2006-05-15 08:39:58 51°14.033 2°48.404 -999 95 14.6 101580 80
2006-05-15 08:40:05 51°14.036 2°48.412 -999 97 14.6 101580 80
2006-05-15 08:40:10 51°14.038 2°48.418 -999 91 14.6 101580 80
2006-05-15 08:40:13 51°14.039 2°48.421 -999 95 14.6 101580 80
2006-05-15 08:40:20 51°14.042 2°48.429 -999 94 14.6 101580 80
2006-05-15 08:40:25 51°14.044 2°48.435 -999 95 14.6 101580 80
2006-05-15 08:40:29 51°14.045 2°48.439 -999 94 14.6 101580 80
2006-05-15 08:40:35 51°14.048 2°48.446 -999 95 14.6 101580 80
2006-05-15 08:40:39 51°14.049 2°48.45 -999 99 14.6 101580 80
2006-05-15 08:40:45 51°14.052 2°48.456 -999 99 14.6 101580 79
2006-05-15 08:40:50 51°14.054 2°48.462 -999 101 14.6 101580 79
2006-05-15 08:40:55 51°14.056 2°48.467 -999 98 14.7 101580 79
2006-05-15 08:40:59 51°14.058 2°48.471 -999 98 14.7 101580 79
2006-05-15 08:41:05 51°14.061 2°48.477 -999 99 14.7 101580 79
2006-05-15 08:41:10 51°14.063 2°48.483 -999 103 14.7 101580 79
2006-05-15 08:41:15 51°14.066 2°48.487 -999 100 14.7 101580 79
2006-05-15 08:41:19 51°14.068 2°48.491 -999 101 14.7 101580 79
2006-05-15 08:41:25 51°14.071 2°48.497 -999 104 14.7 101570 79
2006-05-15 08:41:30 51°14.073 2°48.502 -999 105 14.7 101570 79
2006-05-15 08:41:34 51°14.076 2°48.506 -999 99 14.7 101580 79
2006-05-15 08:41:39 51°14.078 2°48.511 -999 102 14.7 101580 79
2006-05-15 08:41:45 51°14.081 2°48.517 -999 101 14.7 101580 79
2006-05-15 08:41:49 51°14.083 2°48.521 -999 101 14.7 101580 79
2006-05-15 08:41:55 51°14.086 2°48.526 -999 104 14.7 101580 79
2006-05-15 08:42:00 51°14.089 2°48.531 -999 97 14.7 101580 79
2006-05-15 08:42:05 51°14.091 2°48.536 -999 99 14.7 101570 79
2006-05-15 08:42:10 51°14.094 2°48.541 -999 98 14.7 101570 79
2006-05-15 08:42:15 51°14.097 2°48.545 -999 100 14.7 101580 79
2006-05-15 08:42:19 51°14.099 2°48.549 -999 104 14.7 101580 79
2006-05-15 08:42:25 51°14.102 2°48.555 -999 104 14.8 101570 79
2006-05-15 08:42:29 51°14.104 2°48.559 -999 107 14.8 101570 79
2006-05-15 08:42:35 51°14.107 2°48.564 -999 103 14.8 101580 79
2006-05-15 08:42:39 51°14.109 2°48.568 -999 100 14.8 101580 79
2006-05-15 08:42:45 51°14.112 2°48.574 -999 104 14.8 101580 79
2006-05-15 08:42:50 51°14.114 2°48.578 -999 103 14.8 101580 79
2006-05-15 08:42:55 51°14.117 2°48.583 -999 102 14.8 101580 78
2006-05-15 08:43:00 51°14.12 2°48.588 -999 102 14.8 101580 78
2006-05-15 08:43:05 51°14.122 2°48.592 -999 100 14.8 101580 78
2006-05-15 08:43:09 51°14.124 2°48.596 -999 102 14.8 101580 78
2006-05-15 08:43:15 51°14.127 2°48.601 -999 98 14.8 101580 78
2006-05-15 08:43:19 51°14.129 2°48.605 -999 98 14.8 101580 78
2006-05-15 08:43:25 51°14.132 2°48.611 -999 102 14.8 101580 78
2006-05-15 08:43:30 51°14.135 2°48.615 -999 99 14.8 101580 78
2006-05-15 08:43:35 51°14.137 2°48.62 -999 95 14.8 101580 78
2006-05-15 08:43:39 51°14.139 2°48.623 -999 97 14.8 101580 78
2006-05-15 08:43:45 51°14.142 2°48.629 -999 93 14.8 101570 78
2006-05-15 08:43:50 51°14.145 2°48.633 -999 96 14.8 101570 78
2006-05-15 08:43:55 51°14.147 2°48.638 -999 97 14.8 101580 78
2006-05-15 08:44:00 51°14.15 2°48.642 -999 96 14.8 101580 78
2006-05-15 08:44:05 51°14.153 2°48.647 -999 95 14.8 101580 78
2006-05-15 08:44:09 51°14.155 2°48.65 -999 93 14.8 101580 78
2006-05-15 08:44:15 51°14.158 2°48.656 -999 91 14.8 101580 78
2006-05-15 08:44:18 51°14.159 2°48.658 -999 88 14.8 101580 78
2006-05-15 08:44:25 51°14.163 2°48.665 -999 90 14.8 101570 78
2006-05-15 08:44:29 51°14.165 2°48.668 -999 87 14.8 101570 78
2006-05-15 08:44:34 51°14.167 2°48.673 -999 90 14.8 101570 78
2006-05-15 08:44:40 51°14.17 2°48.678 -999 91 14.8 101570 78
2006-05-15 08:44:45 51°14.173 2°48.683 -999 92 14.9 101570 78
2006-05-15 08:44:49 51°14.175 2°48.686 -999 91 14.9 101570 78
2006-05-15 08:44:54 51°14.177 2°48.69 -999 88 14.9 101570 78
2006-05-15 08:45:00 51°14.18 2°48.696 -999 94 14.9 101570 78
2006-05-15 08:45:05 51°14.183 2°48.7 -999 89 14.9 101570 79
2006-05-15 08:45:10 51°14.185 2°48.705 -999 87 14.9 101570 79
2006-05-15 08:45:15 51°14.188 2°48.709 -999 89 14.9 101580 79
2006-05-15 08:45:20 51°14.19 2°48.714 -999 87 14.9 101580 79
2006-05-15 08:45:25 51°14.193 2°48.718 -999 90 14.9 101580 79
2006-05-15 08:45:29 51°14.195 2°48.722 -999 91 14.9 101580 79
2006-05-15 08:45:35 51°14.198 2°48.727 -999 91 14.8 101580 79
2006-05-15 08:45:40 51°14.2 2°48.732 -999 94 14.8 101580 79
2006-05-15 08:45:45 51°14.203 2°48.736 -999 90 14.9 101570 79
2006-05-15 08:45:50 51°14.205 2°48.741 -999 88 14.9 101570 79
2006-05-15 08:45:55 51°14.207 2°48.745 -999 90 14.8 101570 79
2006-05-15 08:46:00 51°14.21 2°48.749 -999 90 14.8 101570 79
2006-05-15 08:46:05 51°14.212 2°48.754 -999 89 14.8 101570 79
2006-05-15 08:46:09 51°14.214 2°48.758 -999 89 14.8 101570 79
2006-05-15 08:46:15 51°14.217 2°48.763 -999 89 14.8 101570 79
2006-05-15 08:46:20 51°14.219 2°48.767 -999 88 14.8 101570 79
2006-05-15 08:46:25 51°14.221 2°48.772 -999 92 14.8 101580 79
2006-05-15 08:46:29 51°14.223 2°48.776 -999 87 14.8 101580 79
2006-05-15 08:46:35 51°14.226 2°48.781 -999 87 14.8 101580 79
2006-05-15 08:46:40 51°14.228 2°48.785 -999 92 14.8 101580 79
2006-05-15 08:46:45 51°14.231 2°48.79 -999 93 14.8 101570 79
2006-05-15 08:46:50 51°14.233 2°48.794 -999 92 14.8 101570 79
2006-05-15 08:46:55 51°14.236 2°48.799 -999 96 14.8 101570 79
2006-05-15 08:47:00 51°14.238 2°48.803 -999 92 14.8 101570 79
2006-05-15 08:47:05 51°14.241 2°48.808 -999 92 14.8 101570 79
2006-05-15 08:47:10 51°14.243 2°48.813 -999 93 14.8 101570 79
2006-05-15 08:47:15 51°14.245 2°48.817 -999 91 14.8 101570 80
2006-05-15 08:47:19 51°14.247 2°48.821 -999 92 14.8 101570 80
2006-05-15 08:47:25 51°14.25 2°48.826 -999 91 14.8 101570 79
2006-05-15 08:47:29 51°14.252 2°48.83 -999 87 14.8 101570 79
2006-05-15 08:47:35 51°14.255 2°48.835 -999 87 14.8 101570 79
2006-05-15 08:47:39 51°14.256 2°48.839 -999 87 14.8 101570 79
2006-05-15 08:47:45 51°14.259 2°48.845 -999 84 14.8 101570 80
2006-05-15 08:47:50 51°14.262 2°48.849 -999 88 14.8 101570 80
2006-05-15 08:47:55 51°14.264 2°48.854 -999 88 14.8 101570 80
2006-05-15 08:48:00 51°14.266 2°48.858 -999 89 14.8 101570 80
2006-05-15 08:48:05 51°14.268 2°48.863 -999 91 14.8 101570 80
2006-05-15 08:48:09 51°14.27 2°48.867 -999 91 14.8 101570 80
2006-05-15 08:48:14 51°14.272 2°48.871 -999 90 14.8 101570 80
2006-05-15 08:48:19 51°14.275 2°48.876 -999 89 14.8 101570 80
2006-05-15 08:48:25 51°14.277 2°48.882 -999 92 14.8 101570 80
2006-05-15 08:48:29 51°14.279 2°48.885 -999 93 14.8 101570 80
2006-05-15 08:48:35 51°14.282 2°48.891 -999 90 14.8 101570 80
2006-05-15 08:48:40 51°14.284 2°48.896 -999 93 14.8 101570 80
2006-05-15 08:48:45 51°14.286 2°48.9 -999 91 14.8 101570 80
2006-05-15 08:48:49 51°14.288 2°48.904 -999 92 14.8 101570 80
2006-05-15 08:48:55 51°14.291 2°48.91 -999 92 14.8 101570 80
2006-05-15 08:49:00 51°14.293 2°48.915 -999 93 14.8 101570 80
2006-05-15 08:49:05 51°14.295 2°48.919 -999 99 14.8 101570 80
2006-05-15 08:49:09 51°14.297 2°48.924 -999 97 14.8 101570 80
2006-05-15 08:49:15 51°14.299 2°48.929 -999 92 14.7 101570 80
2006-05-15 08:49:19 51°14.301 2°48.933 -999 98 14.7 101570 80
2006-05-15 08:49:25 51°14.303 2°48.939 -999 91 14.8 101570 80
2006-05-15 08:49:30 51°14.306 2°48.944 -999 95 14.8 101570 80
2006-05-15 08:49:34 51°14.307 2°48.948 -999 97 14.8 101570 80
2006-05-15 08:49:40 51°14.309 2°48.954 -999 92 14.8 101570 80
2006-05-15 08:49:45 51°14.312 2°48.959 -999 92 14.8 101570 80
2006-05-15 08:49:50 51°14.313 2°48.964 -999 94 14.8 101570 80
2006-05-15 08:49:55 51°14.315 2°48.969 -999 89 14.8 101570 80
2006-05-15 08:50:00 51°14.317 2°48.974 -999 87 14.8 101570 80
2006-05-15 08:50:05 51°14.319 2°48.979 -999 88 14.8 101570 80
2006-05-15 08:50:09 51°14.321 2°48.983 -999 93 14.8 101570 80
2006-05-15 08:50:15 51°14.323 2°48.989 -999 89 14.8 101570 80
2006-05-15 08:50:20 51°14.325 2°48.994 -999 90 14.8 101570 80
2006-05-15 08:50:25 51°14.327 2°48.999 -999 87 14.8 101570 80
2006-05-15 08:50:29 51°14.329 2°49.003 -999 89 14.8 101570 80
2006-05-15 08:50:35 51°14.331 2°49.009 -999 89 14.8 101570 80
2006-05-15 08:50:39 51°14.332 2°49.013 -999 87 14.8 101570 80
2006-05-15 08:50:45 51°14.335 2°49.019 -999 90 14.8 101560 80
2006-05-15 08:50:48 51°14.336 2°49.022 -999 91 14.8 101560 80
2006-05-15 08:50:55 51°14.339 2°49.029 -999 93 14.8 101570 80
2006-05-15 08:50:59 51°14.34 2°49.033 -999 88 14.8 101570 80
2006-05-15 08:51:05 51°14.343 2°49.039 -999 87 14.8 101570 80
2006-05-15 08:51:10 51°14.345 2°49.044 -999 86 14.8 101570 80
2006-05-15 08:51:15 51°14.346 2°49.049 -999 87 14.8 101570 80
2006-05-15 08:51:18 51°14.348 2°49.052 -999 85 14.8 101570 80
2006-05-15 08:51:25 51°14.35 2°49.059 -999 88 14.8 101570 80
2006-05-15 08:51:30 51°14.352 2°49.064 -999 93 14.8 101570 80
2006-05-15 08:51:35 51°14.354 2°49.069 -999 90 14.8 101570 80
2006-05-15 08:51:40 51°14.356 2°49.074 -999 95 14.8 101570 80
2006-05-15 08:51:45 51°14.358 2°49.079 -999 92 14.8 101570 80
2006-05-15 08:51:49 51°14.36 2°49.082 -999 95 14.8 101570 80
2006-05-15 08:51:55 51°14.362 2°49.089 -999 94 14.8 101570 80
2006-05-15 08:52:00 51°14.364 2°49.093 -999 96 14.8 101570 80
2006-05-15 08:52:05 51°14.366 2°49.098 -999 94 14.8 101570 80
2006-05-15 08:52:09 51°14.368 2°49.102 -999 96 14.8 101570 80
2006-05-15 08:52:15 51°14.371 2°49.107 -999 101 14.8 101570 80
2006-05-15 08:52:20 51°14.373 2°49.112 -999 97 14.8 101570 80
2006-05-15 08:52:25 51°14.376 2°49.117 -999 103 14.8 101570 80
2006-05-15 08:52:30 51°14.378 2°49.121 -999 105 14.8 101570 80
2006-05-15 08:52:35 51°14.38 2°49.125 -999 98 14.8 101570 80
2006-05-15 08:52:40 51°14.383 2°49.13 -999 97 14.8 101570 80
2006-05-15 08:52:44 51°14.385 2°49.133 -999 103 14.8 101570 80
2006-05-15 08:52:50 51°14.388 2°49.138 -999 97 14.8 101570 80
2006-05-15 08:52:55 51°14.391 2°49.142 -999 102 14.8 101570 80
2006-05-15 08:53:00 51°14.394 2°49.146 -999 105 14.8 101570 80
2006-05-15 08:53:05 51°14.396 2°49.15 -999 104 14.8 101570 80
2006-05-15 08:53:09 51°14.399 2°49.153 -999 101 14.8 101570 80
2006-05-15 08:53:15 51°14.402 2°49.158 -999 103 14.8 101570 80
2006-05-15 08:53:20 51°14.405 2°49.162 -999 103 14.8 101570 80
2006-05-15 08:53:25 51°14.408 2°49.165 -999 103 14.8 101570 80
2006-05-15 08:53:30 51°14.411 2°49.169 -999 104 14.8 101570 80
2006-05-15 08:53:35 51°14.414 2°49.173 -999 105 14.8 101570 80
2006-05-15 08:53:40 51°14.417 2°49.177 -999 100 14.8 101570 80
2006-05-15 08:53:45 51°14.42 2°49.181 -999 105 14.9 101570 80
2006-05-15 08:53:50 51°14.423 2°49.184 -999 103 14.9 101570 80
2006-05-15 08:53:55 51°14.426 2°49.188 -999 105 14.9 101570 80
2006-05-15 08:54:00 51°14.429 2°49.192 -999 106 14.9 101570 80
2006-05-15 08:54:05 51°14.432 2°49.195 -999 108 14.9 101570 80
2006-05-15 08:54:10 51°14.434 2°49.199 -999 102 14.9 101570 80
2006-05-15 08:54:15 51°14.437 2°49.203 -999 107 14.9 101560 80
2006-05-15 08:54:20 51°14.44 2°49.207 -999 105 14.9 101560 80
2006-05-15 08:54:25 51°14.443 2°49.211 -999 105 14.9 101560 79
2006-05-15 08:54:30 51°14.446 2°49.215 -999 105 14.9 101560 79
2006-05-15 08:54:35 51°14.449 2°49.218 -999 106 14.9 101560 79
2006-05-15 08:54:39 51°14.451 2°49.222 -999 103 14.9 101560 79
2006-05-15 08:54:45 51°14.454 2°49.226 -999 105 14.9 101560 79
2006-05-15 08:54:49 51°14.456 2°49.229 -999 105 14.9 101560 79
2006-05-15 08:54:55 51°14.46 2°49.234 -999 105 14.9 101570 79
2006-05-15 08:55:00 51°14.463 2°49.237 -999 106 14.9 101570 79
2006-05-15 08:55:05 51°14.466 2°49.241 -999 106 14.9 101560 79
2006-05-15 08:55:09 51°14.468 2°49.244 -999 110 14.9 101560 79
2006-05-15 08:55:14 51°14.471 2°49.248 -999 107 15 101560 79
2006-05-15 08:55:20 51°14.474 2°49.253 -999 107 15 101560 79